Time;durP1;ratioP1;P1;durP2;ratioP2;P2;SDS_P1;SDS_P2;PMS_P1;PMS_P2;Temp;Humidity;BMP_temperature;BMP_pressure;BME280_temperature;BME280_humidity;BME280_pressure;Samples;Min_cycle;Max_cycle;Signal;HPM_P1;HPM_P2
2021/07/20 00:03:56;;;;;;;14.07;6.38;;;15.90;99.90;;;;;;10349814;28;20050;-60
2021/07/20 00:09:17;;;;;;;13.10;6.63;;;15.90;99.90;;;;;;10345880;28;20054;-60
2021/07/20 00:14:19;;;;;;;15.50;6.55;;;15.90;99.90;;;;;;10348222;28;20092;-60
2021/07/20 00:19:21;;;;;;;15.57;7.05;;;15.80;99.90;;;;;;10348372;28;20049;-60
2021/07/20 00:24:22;;;;;;;13.85;6.60;;;15.70;99.90;;;;;;10348198;28;20104;-61
2021/07/20 00:29:24;;;;;;;15.85;7.47;;;15.70;99.90;;;;;;10349291;28;20140;-61
2021/07/20 00:34:26;;;;;;;14.85;6.75;;;15.60;99.90;;;;;;10346927;28;20100;-61
2021/07/20 00:39:27;;;;;;;13.00;7.22;;;15.60;99.90;;;;;;10348996;28;20050;-60
2021/07/20 00:44:29;;;;;;;15.43;7.28;;;15.60;99.90;;;;;;10333863;28;20049;-60
2021/07/20 00:49:31;;;;;;;14.70;7.53;;;15.60;99.90;;;;;;10347030;28;20519;-60
2021/07/20 00:54:33;;;;;;;14.95;7.88;;;15.50;99.90;;;;;;10348023;28;20713;-59
2021/07/20 00:59:37;;;;;;;15.35;8.07;;;15.40;99.90;;;;;;10344733;28;20409;-60
2021/07/20 01:04:38;;;;;;;17.02;7.03;;;15.30;99.90;;;;;;10341852;28;20077;-59
2021/07/20 01:09:42;;;;;;;15.27;7.35;;;15.20;99.90;;;;;;10349193;28;20104;-59
2021/07/20 01:14:44;;;;;;;14.02;7.13;;;15.20;99.90;;;;;;10345373;28;20045;-59
2021/07/20 01:19:54;;;;;;;16.58;7.78;;;15.20;99.90;;;;;;10345534;28;20108;-59
2021/07/20 01:24:57;;;;;;;15.95;8.25;;;15.10;99.90;;;;;;10288642;28;20045;-60
2021/07/20 01:30:00;;;;;;;19.23;9.23;;;15.00;99.90;;;;;;10355287;28;20065;-60
2021/07/20 01:35:03;;;;;;;17.10;8.43;;;14.90;99.90;;;;;;10352029;28;20432;-60
2021/07/20 01:40:06;;;;;;;15.20;7.35;;;14.80;99.90;;;;;;10352127;28;20465;-60
2021/07/20 01:45:08;;;;;;;16.02;7.32;;;14.80;99.90;;;;;;10354176;28;20111;-60
2021/07/20 01:50:11;;;;;;;16.52;7.38;;;14.70;99.90;;;;;;10354237;28;20054;-61
2021/07/20 01:55:14;;;;;;;14.68;7.50;;;14.70;99.90;;;;;;10353628;28;20073;-59
2021/07/20 02:00:18;;;;;;;15.40;7.47;;;14.50;99.90;;;;;;10352172;28;20446;-60
2021/07/20 02:10:43;;;;;;;14.85;7.03;;;14.40;99.90;;;;;;10354896;28;20049;-59
2021/07/20 02:15:47;;;;;;;16.90;8.13;;;14.30;99.90;;;;;;10351074;28;20112;-59
2021/07/20 02:20:51;;;;;;;11.05;6.30;;;14.30;99.90;;;;;;10352747;28;20052;-59
2021/07/20 02:25:55;;;;;;;14.82;7.43;;;14.30;99.90;;;;;;10350450;28;20038;-60
2021/07/20 02:30:59;;;;;;;17.33;7.35;;;14.20;99.90;;;;;;10352518;28;20061;-60
2021/07/20 02:36:01;;;;;;;17.25;7.47;;;14.10;99.90;;;;;;10351397;28;20569;-60
2021/07/20 02:41:03;;;;;;;18.77;7.63;;;14.00;99.90;;;;;;10351437;28;20062;-60
2021/07/20 02:46:08;;;;;;;18.48;8.48;;;14.00;99.90;;;;;;10335744;28;20057;-60
2021/07/20 02:51:11;;;;;;;18.00;8.05;;;14.10;99.90;;;;;;10351394;28;20441;-61
2021/07/20 02:56:14;;;;;;;15.95;8.30;;;13.90;99.90;;;;;;10352555;28;20443;-60
2021/07/20 03:01:17;;;;;;;18.33;8.00;;;13.90;99.90;;;;;;10349623;28;20089;-59
2021/07/20 03:06:23;;;;;;;16.20;7.43;;;13.90;99.90;;;;;;10349853;28;20174;-60
2021/07/20 03:11:37;;;;;;;16.05;7.63;;;13.90;99.90;;;;;;10351337;28;20058;-59
2021/07/20 03:16:40;;;;;;;20.20;7.15;;;13.90;99.90;;;;;;10346738;28;20054;-60
2021/07/20 03:21:44;;;;;;;18.13;8.40;;;13.80;99.90;;;;;;10333571;28;20358;-60
2021/07/20 03:26:47;;;;;;;16.02;7.90;;;13.90;99.90;;;;;;10350799;28;20097;-60
2021/07/20 03:31:50;;;;;;;17.90;7.78;;;13.80;99.90;;;;;;10349522;28;20041;-60
2021/07/20 03:36:52;;;;;;;20.25;7.82;;;13.80;99.90;;;;;;10351936;28;20432;-57
2021/07/20 03:41:54;;;;;;;17.00;6.97;;;13.70;99.90;;;;;;10351210;28;20192;-59
2021/07/20 03:46:58;;;;;;;12.98;7.20;;;13.70;99.90;;;;;;10347888;28;20070;-59
2021/07/20 03:52:01;;;;;;;13.13;7.25;;;13.50;99.90;;;;;;10350163;28;20054;-59
2021/07/20 03:57:04;;;;;;;14.98;7.68;;;13.50;99.90;;;;;;10348400;28;20057;-60
2021/07/20 04:02:08;;;;;;;16.48;8.65;;;13.50;99.90;;;;;;10349251;28;20503;-60
2021/07/20 04:07:17;;;;;;;17.08;7.20;;;13.50;99.90;;;;;;10347826;28;20651;-59
2021/07/20 04:12:20;;;;;;;14.95;7.75;;;13.60;99.90;;;;;;10347292;28;20057;-58
2021/07/20 04:17:22;;;;;;;16.98;7.90;;;13.60;99.90;;;;;;10350729;28;20107;-58
2021/07/20 04:22:24;;;;;;;15.80;7.50;;;13.70;99.90;;;;;;10349344;28;20041;-60
2021/07/20 04:27:27;;;;;;;16.40;8.82;;;13.70;99.90;;;;;;10348618;28;20050;-60
2021/07/20 04:32:30;;;;;;;18.63;7.88;;;13.70;99.90;;;;;;10347888;28;20038;-59
2021/07/20 04:37:33;;;;;;;20.33;8.02;;;13.80;99.90;;;;;;10347628;28;20496;-59
2021/07/20 04:42:36;;;;;;;18.23;8.20;;;14.00;99.90;;;;;;10346730;28;20481;-59
2021/07/20 04:47:40;;;;;;;17.70;8.23;;;14.10;99.90;;;;;;10347053;28;20072;-58
2021/07/20 04:52:42;;;;;;;20.60;8.73;;;14.20;99.90;;;;;;10347005;28;20096;-59
2021/07/20 04:57:43;;;;;;;18.58;8.48;;;14.40;99.90;;;;;;10348217;28;20046;-59
2021/07/20 05:02:46;;;;;;;17.20;7.80;;;14.60;99.90;;;;;;10354103;28;20538;-59
2021/07/20 05:07:52;;;;;;;14.45;6.80;;;14.70;99.90;;;;;;10354295;28;20544;-59
2021/07/20 05:12:54;;;;;;;14.43;7.85;;;14.80;99.90;;;;;;10355763;28;20112;-58
2021/07/20 05:17:56;;;;;;;14.48;7.43;;;15.00;99.90;;;;;;10355811;28;20046;-59
2021/07/20 05:22:59;;;;;;;15.93;7.25;;;15.10;99.90;;;;;;10355811;28;20046;-62
2021/07/20 05:28:01;;;;;;;12.18;7.25;;;15.30;99.90;;;;;;10353622;28;20042;-61
2021/07/20 05:33:03;;;;;;;16.20;6.93;;;15.40;99.90;;;;;;10352197;28;20057;-61
2021/07/20 05:38:05;;;;;;;16.17;7.57;;;15.60;99.90;;;;;;10355052;28;20131;-62
2021/07/20 05:43:07;;;;;;;14.23;7.30;;;15.70;99.90;;;;;;10353521;28;20061;-60
2021/07/20 05:48:09;;;;;;;15.38;8.00;;;15.90;99.90;;;;;;10352704;28;20061;-61
2021/07/20 05:53:11;;;;;;;15.85;7.85;;;16.00;99.90;;;;;;10352432;28;20053;-62
2021/07/20 05:58:14;;;;;;;14.05;7.07;;;16.10;99.90;;;;;;10354098;28;20155;-64
2021/07/20 06:03:19;;;;;;;15.32;6.88;;;16.30;99.90;;;;;;10333424;28;20053;-62
2021/07/20 06:08:23;;;;;;;21.27;8.35;;;16.30;99.90;;;;;;10327977;28;20445;-62
2021/07/20 06:13:30;;;;;;;16.73;7.35;;;16.40;99.90;;;;;;10335390;28;20050;-62
2021/07/20 06:18:35;;;;;;;15.90;7.38;;;16.50;99.90;;;;;;10352477;28;20037;-62
2021/07/20 06:23:42;;;;;;;18.65;8.27;;;16.70;99.90;;;;;;10353148;28;21022;-62
2021/07/20 06:28:44;;;;;;;;;;;16.80;99.90;;;;;;10349454;28;20046;-60
2021/07/20 06:33:47;;;;;;;12.75;7.28;;;16.70;99.90;;;;;;10349529;28;19929;-61
2021/07/20 06:38:49;;;;;;;16.15;7.13;;;16.80;99.90;;;;;;10348529;28;20049;-61
2021/07/20 06:43:52;;;;;;;16.63;6.78;;;16.90;99.90;;;;;;10350275;28;20569;-62
2021/07/20 06:48:54;;;;;;;14.30;7.25;;;17.00;99.90;;;;;;10352660;28;20072;-62
2021/07/20 06:53:57;;;;;;;14.90;6.88;;;17.20;99.90;;;;;;10350402;28;20046;-62
2021/07/20 06:59:00;;;;;;;14.77;6.45;;;17.30;99.90;;;;;;10351760;28;20074;-62
2021/07/20 07:04:16;;;;;;;12.32;6.55;;;17.40;99.90;;;;;;10351467;28;20137;-62
2021/07/20 07:09:20;;;;;;;20.10;7.28;;;17.50;99.90;;;;;;10348859;28;20098;-61
2021/07/20 07:14:23;;;;;;;12.02;5.32;;;17.60;99.90;;;;;;10348752;28;20112;-61
2021/07/20 07:19:26;;;;;;;11.27;6.72;;;17.70;99.90;;;;;;10349739;28;20116;-62
2021/07/20 07:24:29;;;;;;;11.65;5.13;;;17.80;99.90;;;;;;10350642;28;20065;-62
2021/07/20 07:29:31;;;;;;;10.90;5.38;;;18.00;99.90;;;;;;10351694;28;20046;-63
2021/07/20 07:34:33;;;;;;;11.52;4.57;;;18.20;99.90;;;;;;10346986;28;20065;-61
2021/07/20 07:39:36;;;;;;;8.63;4.20;;;18.20;99.90;;;;;;10348404;28;20049;-62
2021/07/20 07:44:40;;;;;;;12.43;4.95;;;18.30;99.90;;;;;;10349239;28;20069;-62
2021/07/20 07:49:44;;;;;;;11.88;4.75;;;18.50;99.90;;;;;;10348833;28;20089;-62
2021/07/20 07:54:46;;;;;;;9.77;5.05;;;18.80;99.90;;;;;;10348971;28;20084;-62
2021/07/20 07:59:52;;;;;;;10.77;4.60;;;18.70;99.90;;;;;;10348305;28;20073;-59
2021/07/20 08:05:03;;;;;;;15.77;5.03;;;18.90;99.90;;;;;;10347078;28;20054;-59
2021/07/20 08:10:07;;;;;;;13.82;4.63;;;19.10;99.90;;;;;;10350097;28;20046;-59
2021/07/20 08:15:10;;;;;;;8.35;4.65;;;19.40;99.90;;;;;;10350258;28;20491;-59
2021/07/20 08:20:13;;;;;;;9.45;4.95;;;19.60;99.00;;;;;;10348113;28;20085;-59
2021/07/20 08:25:35;;;;;;;14.27;3.88;;;19.90;98.20;;;;;;10349574;28;20049;-59
2021/07/20 08:30:49;;;;;;;8.90;4.70;;;20.00;94.10;;;;;;10296034;28;20058;-59
2021/07/20 08:36:01;;;;;;;7.88;4.00;;;19.70;94.50;;;;;;10298569;28;20463;-58
2021/07/20 08:41:13;;;;;;;10.50;3.92;;;20.00;92.50;;;;;;10348928;28;20058;-59
2021/07/20 08:46:33;;;;;;;6.85;3.80;;;20.00;92.90;;;;;;10346237;28;20111;-59
2021/07/20 08:51:44;;;;;;;9.18;4.45;;;20.00;92.30;;;;;;10294522;28;20100;-58
2021/07/20 08:56:47;;;;;;;9.27;4.18;;;20.20;92.60;;;;;;10328950;28;20054;-59
2021/07/20 09:02:01;;;;;;;8.43;3.63;;;20.80;93.20;;;;;;10347074;28;20057;-58
2021/07/20 09:07:10;;;;;;;7.97;3.92;;;20.70;91.50;;;;;;10328939;28;20042;-58
2021/07/20 09:12:18;;;;;;;9.05;3.90;;;21.10;91.40;;;;;;10347482;28;20677;-58
2021/07/20 09:17:26;;;;;;;11.27;3.70;;;21.10;86.90;;;;;;10345030;28;20057;-58
2021/07/20 09:22:47;;;;;;;8.60;4.53;;;21.20;84.20;;;;;;10346234;28;20065;-59
2021/07/20 09:27:59;;;;;;;6.63;3.88;;;21.10;84.20;;;;;;10346221;28;20985;-59
2021/07/20 09:33:19;;;;;;;8.82;3.97;;;21.40;86.20;;;;;;10347133;28;20062;-59
2021/07/20 09:39:02;;;;;;;8.40;3.50;;;21.50;82.30;;;;;;10346368;28;20443;-58
2021/07/20 09:44:36;;;;;;;7.40;3.55;;;21.40;83.20;;;;;;10296808;28;20054;-59
2021/07/20 09:49:38;;;;;;;8.82;3.58;;;21.30;80.60;;;;;;10306177;28;20077;-62
2021/07/20 09:54:53;;;;;;;9.45;4.18;;;21.50;81.40;;;;;;10354219;28;20058;-63
2021/07/20 10:00:10;;;;;;;8.23;3.47;;;20.90;79.80;;;;;;10352300;28;20441;-62
2021/07/20 10:05:32;;;;;;;8.00;3.92;;;21.30;80.10;;;;;;10353727;28;20053;-63
2021/07/20 10:10:48;;;;;;;10.57;4.97;;;21.80;79.70;;;;;;10302881;28;20046;-61
2021/07/20 10:16:13;;;;;;;10.18;4.38;;;21.40;77.70;;;;;;10351052;28;20053;-61
2021/07/20 10:21:20;;;;;;;5.07;2.88;;;21.40;77.20;;;;;;10351290;28;20447;-61
2021/07/20 10:26:31;;;;;;;8.00;3.15;;;21.80;76.90;;;;;;10351312;28;20108;-61
2021/07/20 10:32:06;;;;;;;7.38;4.28;;;21.30;78.70;;;;;;10345868;28;20561;-61
2021/07/20 10:37:12;;;;;;;7.03;3.17;;;21.80;77.50;;;;;;10299316;28;20052;-62
2021/07/20 10:42:39;;;;;;;5.13;3.38;;;22.20;76.90;;;;;;10351462;28;20057;-61
2021/07/20 10:47:58;;;;;;;5.70;3.40;;;22.30;74.40;;;;;;10295518;28;20065;-62
2021/07/20 10:53:16;;;;;;;7.30;3.08;;;22.30;73.50;;;;;;10299689;28;20058;-61
2021/07/20 10:58:39;;;;;;;6.18;3.28;;;22.50;74.40;;;;;;10347142;28;20045;-65
2021/07/20 11:04:19;;;;;;;7.57;3.28;;;23.10;72.40;;;;;;10350840;28;20084;-67
2021/07/20 11:09:25;;;;;;;5.70;3.03;;;23.40;69.90;;;;;;10287822;28;20106;-66
2021/07/20 11:14:30;;;;;;;7.57;3.05;;;23.30;68.90;;;;;;10348732;28;20439;-61
2021/07/20 11:19:33;;;;;;;7.83;3.30;;;23.40;71.20;;;;;;10349801;28;20046;-61
2021/07/20 11:24:35;;;;;;;5.13;3.17;;;23.50;69.80;;;;;;10352629;28;20048;-62
2021/07/20 11:29:37;;;;;;;6.82;3.53;;;23.90;71.00;;;;;;10351009;28;27228;-61
2021/07/20 11:34:43;;;;;;;9.43;3.88;;;24.30;70.00;;;;;;10349034;28;20101;-62
2021/07/20 11:39:55;;;;;;;6.23;3.23;;;24.40;68.10;;;;;;10348569;28;20042;-62
2021/07/20 11:45:02;;;;;;;5.95;3.70;;;23.60;69.00;;;;;;10346979;28;20049;-61
2021/07/20 11:50:21;;;;;;;10.13;3.70;;;24.40;67.40;;;;;;10348083;28;20046;-61
2021/07/20 11:55:50;;;;;;;7.75;3.22;;;24.40;69.40;;;;;;10344240;28;20108;-62
2021/07/20 12:01:13;;;;;;;9.02;3.13;;;24.80;68.50;;;;;;10324247;28;20034;-62
2021/07/20 12:06:29;;;;;;;5.72;3.38;;;25.00;65.20;;;;;;10340399;28;20060;-63
2021/07/20 12:11:35;;;;;;;5.75;3.17;;;25.30;66.00;;;;;;10291295;28;20493;-63
2021/07/20 12:16:41;;;;;;;4.80;3.28;;;25.70;65.90;;;;;;10343040;28;20053;-63
2021/07/20 12:21:46;;;;;;;6.93;3.45;;;25.90;63.90;;;;;;10341109;28;20042;-62
2021/07/20 12:26:51;;;;;;;4.73;2.93;;;25.90;63.60;;;;;;10339166;28;20050;-62
2021/07/20 12:31:53;;;;;;;7.38;3.40;;;26.30;63.10;;;;;;10344444;28;20710;-62
2021/07/20 12:36:55;;;;;;;5.43;3.22;;;26.10;61.70;;;;;;10342158;28;20052;-61
2021/07/20 12:41:56;;;;;;;5.47;2.97;;;25.60;61.00;;;;;;10345641;28;20473;-61
2021/07/20 12:47:18;;;;;;;8.43;3.90;;;25.40;61.10;;;;;;10345523;28;20046;-62
2021/07/20 12:52:21;;;;;;;4.97;3.00;;;26.00;64.30;;;;;;10341975;28;20119;-62
2021/07/20 12:57:24;;;;;;;6.63;3.42;;;26.10;61.60;;;;;;10343834;28;20058;-62
2021/07/20 13:02:46;;;;;;;3.95;2.60;;;25.90;60.80;;;;;;10347100;28;20174;-63
2021/07/20 13:07:50;;;;;;;8.57;3.28;;;25.80;60.00;;;;;;10344101;28;20493;-62
2021/07/20 13:12:54;;;;;;;6.15;3.33;;;26.30;61.90;;;;;;10346713;28;20108;-63
2021/07/20 13:17:57;;;;;;;3.22;2.85;;;25.90;61.50;;;;;;10346926;28;20108;-63
2021/07/20 13:22:59;;;;;;;4.57;2.90;;;26.00;60.10;;;;;;10331389;28;20095;-62
2021/07/20 13:28:01;;;;;;;3.97;2.97;;;25.30;63.50;;;;;;10354031;28;20128;-62
2021/07/20 13:33:03;;;;;;;6.55;3.70;;;26.10;61.80;;;;;;10351897;28;20476;-62
2021/07/20 13:38:05;;;;;;;5.40;2.95;;;26.10;59.70;;;;;;10352338;28;20104;-62
2021/07/20 13:43:07;;;;;;;6.88;3.30;;;27.00;60.30;;;;;;10355690;28;20049;-63
2021/07/20 13:48:12;;;;;;;4.88;3.45;;;27.00;58.60;;;;;;10351687;28;20077;-62
2021/07/20 13:53:26;;;;;;;6.97;3.45;;;27.60;57.30;;;;;;10352439;28;20058;-62
2021/07/20 13:58:31;;;;;;;8.38;3.42;;;28.20;56.70;;;;;;10348963;28;20120;-62
2021/07/20 14:03:35;;;;;;;4.82;2.70;;;28.20;56.00;;;;;;10354375;28;20105;-63
2021/07/20 14:08:38;;;;;;;4.10;2.47;;;29.00;54.80;;;;;;10355733;28;20069;-64
2021/07/20 14:13:45;;;;;;;4.95;2.30;;;28.60;54.10;;;;;;10354905;28;20046;-62
2021/07/20 14:18:50;;;;;;;4.40;2.85;;;28.60;52.90;;;;;;10356456;28;20046;-63
2021/07/20 14:23:54;;;;;;;4.32;2.60;;;28.60;52.90;;;;;;10353813;28;20053;-63
2021/07/20 14:28:57;;;;;;;4.00;2.65;;;28.60;52.00;;;;;;10355100;28;20104;-63
2021/07/20 14:34:10;;;;;;;3.65;2.13;;;28.70;53.30;;;;;;10351459;28;20053;-63
2021/07/20 14:39:30;;;;;;;3.42;2.30;;;28.90;53.50;;;;;;10348967;28;20065;-62
2021/07/20 14:44:50;;;;;;;4.57;2.60;;;28.30;52.40;;;;;;10296596;28;20151;-62
2021/07/20 14:49:52;;;;;;;4.90;2.22;;;28.70;53.20;;;;;;10350133;28;20069;-62
2021/07/20 14:55:10;;;;;;;2.90;2.55;;;29.40;53.50;;;;;;10350794;28;20096;-62
2021/07/20 15:00:12;;;;;;;8.18;2.75;;;29.50;50.80;;;;;;10350042;28;20108;-62
2021/07/20 15:05:26;;;;;;;4.50;2.65;;;29.60;51.60;;;;;;10348028;28;20046;-62
2021/07/20 15:10:32;;;;;;;3.50;2.45;;;29.50;50.70;;;;;;10347785;28;20054;-62
2021/07/20 15:15:34;;;;;;;4.50;3.17;;;29.50;50.40;;;;;;10350035;28;20042;-62
2021/07/20 15:20:40;;;;;;;5.70;2.20;;;29.40;50.70;;;;;;10344611;28;20049;-62
2021/07/20 15:25:42;;;;;;;;;;;29.50;50.00;;;;;;10350406;28;20050;-64
2021/07/20 15:30:44;;;;;;;4.68;2.33;;;29.70;50.90;;;;;;10348253;28;19922;-61
2021/07/20 15:35:47;;;;;;;4.15;2.45;;;29.90;54.00;;;;;;10351486;28;20131;-58
2021/07/20 15:40:50;;;;;;;3.90;2.38;;;29.70;54.20;;;;;;10349226;28;20058;-59
2021/07/20 15:45:53;;;;;;;4.32;3.08;;;29.50;51.90;;;;;;10349731;28;20112;-63
2021/07/20 15:50:56;;;;;;;4.72;2.33;;;29.60;51.20;;;;;;10350435;28;20054;-63
2021/07/20 15:55:57;;;;;;;4.47;2.25;;;29.60;51.10;;;;;;10351036;28;20481;-62
2021/07/20 16:01:03;;;;;;;7.38;2.58;;;29.60;52.00;;;;;;10335582;28;20108;-62
2021/07/20 16:06:08;;;;;;;4.57;2.22;;;29.60;53.00;;;;;;10346697;28;20038;-64
2021/07/20 16:11:12;;;;;;;3.40;2.28;;;29.80;51.00;;;;;;10347330;28;20050;-64
2021/07/20 16:16:17;;;;;;;3.50;1.98;;;29.80;51.90;;;;;;10346833;28;20120;-63
2021/07/20 16:21:20;;;;;;;;;;;29.60;49.50;;;;;;10348202;28;20042;-62
2021/07/20 16:26:25;;;;;;;4.20;2.58;;;29.40;49.20;;;;;;10347943;28;20666;-64
2021/07/20 16:31:27;;;;;;;5.20;2.20;;;29.50;49.20;;;;;;10347709;28;20123;-62
2021/07/20 16:36:29;;;;;;;3.65;2.15;;;29.50;50.90;;;;;;10348610;28;20045;-64
2021/07/20 16:41:31;;;;;;;6.20;2.70;;;29.20;50.90;;;;;;10347839;28;20046;-67
2021/07/20 16:46:33;;;;;;;6.72;3.10;;;29.90;49.90;;;;;;10327620;28;20054;-63
2021/07/20 16:51:35;;;;;;;3.47;2.08;;;29.70;48.90;;;;;;10349229;28;20739;-61
2021/07/20 16:56:39;;;;;;;3.85;2.30;;;29.20;49.50;;;;;;10352219;28;20111;-61
2021/07/20 17:01:43;;;;;;;;;;;29.40;49.70;;;;;;10357235;28;20131;-62
2021/07/20 17:06:46;;;;;;;2.95;2.10;;;29.10;50.00;;;;;;10355773;28;20335;-63
2021/07/20 17:11:48;;;;;;;3.97;2.10;;;29.40;50.30;;;;;;10355912;28;20049;-61
2021/07/20 17:16:49;;;;;;;3.53;2.10;;;28.70;50.90;;;;;;10355322;28;20042;-61
2021/07/20 17:21:52;;;;;;;2.40;2.20;;;29.00;50.60;;;;;;10348875;28;20058;-62
2021/07/20 17:26:54;;;;;;;3.17;2.20;;;29.10;51.50;;;;;;10352640;28;20070;-60
2021/07/20 17:31:59;;;;;;;3.63;2.30;;;29.00;51.30;;;;;;10356093;28;20071;-61
2021/07/20 17:37:12;;;;;;;6.32;2.75;;;28.90;51.50;;;;;;10356029;28;20111;-61
2021/07/20 17:42:21;;;;;;;4.05;2.88;;;28.60;52.20;;;;;;10354741;28;20050;-63
2021/07/20 17:47:29;;;;;;;4.05;2.20;;;28.40;51.30;;;;;;10352881;28;20108;-62
2021/07/20 17:52:31;;;;;;;4.88;2.00;;;28.30;52.70;;;;;;10349918;28;20072;-61
2021/07/20 17:57:33;;;;;;;4.78;2.25;;;28.30;53.00;;;;;;10348873;28;20038;-62
2021/07/20 18:02:35;;;;;;;5.68;2.83;;;28.40;53.90;;;;;;10344302;28;20049;-62
2021/07/20 18:07:40;;;;;;;6.78;2.20;;;28.30;53.50;;;;;;10347346;28;20046;-64
2021/07/20 18:12:42;;;;;;;3.85;2.38;;;28.10;54.20;;;;;;10347835;28;20057;-63
2021/07/20 18:17:44;;;;;;;5.85;2.30;;;27.40;54.80;;;;;;10347202;28;20107;-62
2021/07/20 18:22:46;;;;;;;5.25;2.88;;;26.60;56.30;;;;;;10348267;28;20122;-62
2021/07/20 18:27:47;;;;;;;4.72;2.42;;;26.00;57.40;;;;;;10346154;28;20046;-64
2021/07/20 18:32:49;;;;;;;5.47;2.92;;;25.60;58.40;;;;;;10349615;28;20050;-60
2021/07/20 18:37:51;;;;;;;4.72;2.53;;;25.00;60.00;;;;;;10350048;28;20111;-60
2021/07/20 18:42:53;;;;;;;2.72;2.30;;;24.70;60.80;;;;;;10353267;28;20050;-60
2021/07/20 18:47:55;;;;;;;4.28;1.98;;;24.40;60.70;;;;;;10350468;28;20077;-60
2021/07/20 18:52:57;;;;;;;7.90;2.53;;;24.10;62.10;;;;;;10351236;28;20050;-61
2021/07/20 18:57:58;;;;;;;3.70;2.13;;;23.90;63.60;;;;;;10344177;28;20042;-61
2021/07/20 19:03:00;;;;;;;6.20;2.95;;;23.50;63.70;;;;;;10348357;28;20373;-62
2021/07/20 19:08:03;;;;;;;4.30;2.30;;;23.30;65.80;;;;;;10351474;28;20055;-61
2021/07/20 19:13:09;;;;;;;7.30;2.60;;;23.10;66.30;;;;;;10349358;28;20069;-61
2021/07/20 19:18:11;;;;;;;7.10;2.27;;;22.80;68.20;;;;;;10336508;28;20049;-61
2021/07/20 19:23:13;;;;;;;6.18;2.63;;;22.50;68.60;;;;;;10351158;28;20107;-60
2021/07/20 19:28:15;;;;;;;10.30;3.25;;;22.20;70.00;;;;;;10350858;28;20536;-62
2021/07/20 19:33:17;;;;;;;6.13;3.30;;;22.10;71.80;;;;;;10350460;28;20103;-60
2021/07/20 19:38:19;;;;;;;7.38;2.65;;;21.80;72.70;;;;;;10350477;28;20064;-60
2021/07/20 19:43:20;;;;;;;5.40;2.78;;;21.60;72.80;;;;;;10343980;28;20137;-59
2021/07/20 19:48:22;;;;;;;5.95;2.55;;;21.30;73.50;;;;;;10348248;28;20196;-60
2021/07/20 19:53:24;;;;;;;4.30;2.85;;;21.10;74.50;;;;;;10346035;28;20050;-60
2021/07/20 19:58:26;;;;;;;5.82;2.20;;;20.90;75.80;;;;;;10344439;28;20077;-62
2021/07/20 20:03:29;;;;;;;8.73;2.63;;;20.70;77.40;;;;;;10347586;28;20049;-61
2021/07/20 20:08:31;;;;;;;6.40;2.78;;;20.30;78.10;;;;;;10345403;28;20065;-62
2021/07/20 20:13:33;;;;;;;10.13;3.63;;;20.20;78.60;;;;;;10339275;28;20057;-62
2021/07/20 20:18:35;;;;;;;7.30;3.10;;;20.00;79.70;;;;;;10323524;28;20046;-62
2021/07/20 20:23:37;;;;;;;5.95;3.30;;;19.60;81.50;;;;;;10332680;28;20054;-61
2021/07/20 20:28:40;;;;;;;9.95;3.05;;;19.50;82.40;;;;;;10350080;28;20073;-62
2021/07/20 20:33:41;;;;;;;6.05;2.83;;;19.30;83.10;;;;;;10326941;28;20440;-62
2021/07/20 20:38:44;;;;;;;5.88;2.83;;;19.20;84.00;;;;;;10328095;28;20782;-63
2021/07/20 20:43:46;;;;;;;9.35;3.58;;;19.00;84.30;;;;;;10348119;28;20042;-60
2021/07/20 20:48:48;;;;;;;4.53;2.40;;;18.90;85.10;;;;;;10347871;28;20078;-60
2021/07/20 20:53:50;;;;;;;14.40;2.80;;;18.80;85.90;;;;;;10348804;28;20761;-59
2021/07/20 20:58:52;;;;;;;7.85;2.95;;;18.70;86.50;;;;;;10338193;28;20139;-59
2021/07/20 21:03:55;;;;;;;7.32;2.47;;;18.50;86.20;;;;;;10342397;28;20057;-59
2021/07/20 21:08:57;;;;;;;5.63;2.67;;;18.40;86.50;;;;;;10341806;28;20057;-59
2021/07/20 21:13:58;;;;;;;6.65;2.67;;;18.30;87.00;;;;;;10340378;28;20046;-60
2021/07/20 21:19:00;;;;;;;6.57;2.28;;;18.30;87.40;;;;;;10323707;28;20115;-60
2021/07/20 21:24:02;;;;;;;8.10;2.53;;;18.20;87.10;;;;;;10342179;28;20136;-60
2021/07/20 21:29:05;;;;;;;5.40;2.47;;;18.20;88.40;;;;;;10336604;28;20057;-61
2021/07/20 21:34:07;;;;;;;4.82;1.95;;;18.00;88.40;;;;;;10343096;28;20057;-60
2021/07/20 21:39:09;;;;;;;7.57;2.70;;;17.90;89.20;;;;;;10323656;28;20129;-60
2021/07/20 21:44:10;;;;;;;4.70;2.30;;;17.90;90.00;;;;;;10348567;28;20085;-60
2021/07/20 21:49:12;;;;;;;5.75;2.22;;;17.70;90.50;;;;;;10350155;28;20081;-60
2021/07/20 21:54:14;;;;;;;3.53;2.00;;;17.70;91.00;;;;;;10349996;28;20085;-60
2021/07/20 21:59:15;;;;;;;4.65;2.05;;;17.60;91.60;;;;;;10353170;28;20100;-59
2021/07/20 22:04:17;;;;;;;4.50;2.10;;;17.50;91.90;;;;;;10353435;28;20058;-60
2021/07/20 22:09:19;;;;;;;5.68;2.63;;;17.40;92.50;;;;;;10355851;28;20050;-59
2021/07/20 22:14:21;;;;;;;3.20;1.85;;;17.40;92.80;;;;;;10353929;28;20061;-59
2021/07/20 22:19:23;;;;;;;5.40;2.20;;;17.30;93.50;;;;;;10353709;28;20103;-59
2021/07/20 22:24:27;;;;;;;4.78;2.38;;;17.10;94.20;;;;;;10353894;28;20069;-59
2021/07/20 22:29:28;;;;;;;3.17;1.58;;;17.00;95.00;;;;;;10352646;28;20107;-60
2021/07/20 22:34:30;;;;;;;5.47;2.20;;;17.00;95.90;;;;;;10351978;28;20058;-60
2021/07/20 22:39:32;;;;;;;5.43;1.92;;;16.90;96.20;;;;;;10352995;28;20112;-60
2021/07/20 22:44:36;;;;;;;3.72;1.70;;;16.80;97.00;;;;;;10349096;28;20500;-60
2021/07/20 22:49:38;;;;;;;4.32;2.30;;;16.80;97.90;;;;;;10354300;28;20069;-59
2021/07/20 22:54:43;;;;;;;4.93;2.47;;;16.60;98.20;;;;;;10337615;28;20073;-60
2021/07/20 22:59:45;;;;;;;3.95;1.88;;;16.60;98.70;;;;;;10349232;28;20481;-59
2021/07/20 23:04:47;;;;;;;4.18;1.92;;;16.60;99.30;;;;;;10349838;28;20085;-58
2021/07/20 23:09:50;;;;;;;2.67;1.60;;;16.50;99.70;;;;;;10352336;28;20069;-59
2021/07/20 23:14:52;;;;;;;3.08;1.60;;;16.40;99.90;;;;;;10349919;28;20108;-59
2021/07/20 23:19:53;;;;;;;3.83;1.88;;;16.40;99.90;;;;;;10351727;28;20108;-58
2021/07/20 23:24:55;;;;;;;3.63;1.70;;;16.30;99.90;;;;;;10349929;28;20439;-59
2021/07/20 23:29:57;;;;;;;2.13;1.48;;;16.30;99.90;;;;;;10329262;28;20046;-59
2021/07/20 23:34:59;;;;;;;5.28;2.03;;;16.20;99.90;;;;;;10345587;28;20050;-59
2021/07/20 23:40:03;;;;;;;4.53;1.70;;;16.10;99.90;;;;;;10349300;28;20050;-58
2021/07/20 23:45:06;;;;;;;6.38;2.45;;;16.00;99.90;;;;;;10350788;28;20049;-58
2021/07/20 23:50:11;;;;;;;10.00;2.72;;;15.80;99.90;;;;;;10347802;28;20453;-59
2021/07/20 23:55:13;;;;;;;4.63;1.80;;;15.70;99.90;;;;;;10349022;28;20066;-58
